createdAt,value
2022-08-28T00:01:29.005Z,17.47
2022-08-28T00:03:56.647Z,17.48
2022-08-28T00:06:26.708Z,17.53
2022-08-28T00:08:54.907Z,17.48
2022-08-28T00:11:22.494Z,17.45
2022-08-28T00:13:51.070Z,17.46
2022-08-28T00:16:18.976Z,17.46
2022-08-28T00:18:47.055Z,17.46
2022-08-28T00:21:15.365Z,17.47
2022-08-28T00:23:44.682Z,17.49
2022-08-28T00:26:12.706Z,17.49
2022-08-28T00:28:40.486Z,17.51
2022-08-28T00:31:07.664Z,17.51
2022-08-28T00:33:36.195Z,17.52
2022-08-28T00:36:04.781Z,17.48
2022-08-28T00:38:33.198Z,17.46
2022-08-28T00:41:04.035Z,17.43
2022-08-28T00:43:37.474Z,17.40
2022-08-28T00:46:07.947Z,17.38
2022-08-28T00:48:35.293Z,17.31
2022-08-28T00:51:04.814Z,17.27
2022-08-28T00:53:33.028Z,17.25
2022-08-28T00:56:07.061Z,17.25
2022-08-28T00:58:43.985Z,17.19
2022-08-28T01:01:13.595Z,17.10
2022-08-28T01:03:41.641Z,17.05
2022-08-28T01:06:09.737Z,17.06
2022-08-28T01:08:41.235Z,17.01
2022-08-28T01:11:11.529Z,17.05
2022-08-28T01:13:41.604Z,17.10
2022-08-28T01:16:10.409Z,17.15
2022-08-28T01:18:38.527Z,17.13
2022-08-28T01:21:16.889Z,17.07
2022-08-28T01:23:55.654Z,16.99
2022-08-28T01:26:23.196Z,16.95
2022-08-28T01:28:51.367Z,16.93
2022-08-28T01:31:19.363Z,16.93
2022-08-28T01:33:48.330Z,16.90
2022-08-28T01:36:17.785Z,16.96
2022-08-28T01:38:49.391Z,16.94
2022-08-28T01:41:19.239Z,16.94
2022-08-28T01:43:46.743Z,16.88
2022-08-28T01:46:13.958Z,16.83
2022-08-28T01:48:44.303Z,16.81
2022-08-28T01:51:13.764Z,16.77
2022-08-28T01:53:45.327Z,16.77
2022-08-28T01:56:16.843Z,16.77
2022-08-28T01:58:47.183Z,16.76
2022-08-28T02:01:17.915Z,16.77
2022-08-28T02:03:45.897Z,16.75
2022-08-28T02:06:15.198Z,16.75
2022-08-28T02:08:43.092Z,16.77
2022-08-28T02:11:11.503Z,16.78
2022-08-28T02:13:41.097Z,16.82
2022-08-28T02:16:11.204Z,16.82
2022-08-28T02:18:39.189Z,16.86
2022-08-28T02:21:07.039Z,16.87
2022-08-28T02:23:34.892Z,16.84
2022-08-28T02:26:02.470Z,16.84
2022-08-28T02:28:30.284Z,16.88
2022-08-28T02:30:58.242Z,16.92
2022-08-28T02:33:27.846Z,16.93
2022-08-28T02:35:55.370Z,16.93
2022-08-28T02:38:23.223Z,16.91
2022-08-28T02:40:50.742Z,16.87
2022-08-28T02:43:18.240Z,16.84
2022-08-28T02:45:47.074Z,16.85
2022-08-28T02:48:17.172Z,16.88
2022-08-28T02:50:48.152Z,16.88
2022-08-28T02:53:16.054Z,16.88
2022-08-28T02:55:43.788Z,16.85
2022-08-28T02:58:12.131Z,16.85
2022-08-28T03:00:40.171Z,16.81
2022-08-28T03:03:08.000Z,16.83
2022-08-28T03:05:35.247Z,16.84
2022-08-28T03:08:05.833Z,16.82
2022-08-28T03:10:34.117Z,16.80
2022-08-28T03:13:01.948Z,16.76
2022-08-28T03:15:29.227Z,16.76
2022-08-28T03:17:56.470Z,16.78
2022-08-28T03:20:23.827Z,16.76
2022-08-28T03:22:51.342Z,16.79
2022-08-28T03:25:21.214Z,16.81
2022-08-28T03:27:48.942Z,16.79
2022-08-28T03:30:17.427Z,16.73
2022-08-28T03:32:44.956Z,16.67
2022-08-28T03:35:13.752Z,16.67
2022-08-28T03:37:41.602Z,16.63
2022-08-28T03:40:11.396Z,16.62
2022-08-28T03:42:41.475Z,16.61
2022-08-28T03:45:10.249Z,16.60
2022-08-28T03:47:38.749Z,16.59
2022-08-28T03:50:09.940Z,16.55
2022-08-28T03:52:39.643Z,16.47
2022-08-28T03:55:09.299Z,16.45
2022-08-28T03:57:36.889Z,16.45
2022-08-28T04:00:11.705Z,16.42
2022-08-28T04:02:39.514Z,16.35
2022-08-28T04:05:08.201Z,16.32
2022-08-28T04:07:37.427Z,16.29
2022-08-28T04:10:06.561Z,16.25
2022-08-28T04:12:35.312Z,16.22
2022-08-28T04:15:02.904Z,16.22
2022-08-28T04:17:33.011Z,16.17
2022-08-28T04:20:00.792Z,16.11
2022-08-28T04:22:29.908Z,16.07
2022-08-28T04:24:57.123Z,16.07
2022-08-28T04:27:24.638Z,16.02
2022-08-28T04:29:51.892Z,15.99
2022-08-28T04:32:19.419Z,16.01
2022-08-28T04:34:48.685Z,15.97
2022-08-28T04:37:16.004Z,15.95
2022-08-28T04:39:43.854Z,15.92
2022-08-28T04:42:11.168Z,15.97
2022-08-28T04:44:39.185Z,15.91
2022-08-28T04:47:07.416Z,15.92
2022-08-28T04:49:36.191Z,15.85
2022-08-28T04:52:06.889Z,15.75
2022-08-28T04:54:35.377Z,15.66
2022-08-28T04:57:02.891Z,15.61
2022-08-28T04:59:34.233Z,15.60
2022-08-28T05:02:01.530Z,15.57
2022-08-28T05:04:29.273Z,15.60
2022-08-28T05:06:57.120Z,15.60
2022-08-28T05:09:26.550Z,15.67
2022-08-28T05:11:54.402Z,15.71
2022-08-28T05:14:22.343Z,15.75
2022-08-28T05:16:52.354Z,15.80
2022-08-28T05:19:21.530Z,15.87
2022-08-28T05:21:49.086Z,15.93
2022-08-28T05:24:16.467Z,15.96
2022-08-28T05:26:48.207Z,16.02
2022-08-28T05:29:17.281Z,16.07
2022-08-28T05:31:46.235Z,16.11
2022-08-28T05:34:14.921Z,16.13
2022-08-28T05:36:42.451Z,16.17
2022-08-28T05:39:11.458Z,16.21
2022-08-28T05:41:41.818Z,16.23
2022-08-28T05:44:12.538Z,16.28
2022-08-28T05:46:42.059Z,16.33
2022-08-28T05:49:10.402Z,16.40
2022-08-28T05:51:40.574Z,16.39
2022-08-28T05:54:08.463Z,16.40
2022-08-28T05:56:38.534Z,16.39
2022-08-28T05:59:09.280Z,16.43
2022-08-28T06:01:40.226Z,16.45
2022-08-28T06:04:10.120Z,16.47
2022-08-28T06:06:38.287Z,16.54
2022-08-28T06:09:09.312Z,16.55
2022-08-28T06:11:36.990Z,16.57
2022-08-28T06:14:07.874Z,16.60
2022-08-28T06:16:38.747Z,16.65
2022-08-28T06:19:06.736Z,16.67
2022-08-28T06:21:34.057Z,16.75
2022-08-28T06:24:01.838Z,16.78
2022-08-28T06:26:29.224Z,16.83
2022-08-28T06:29:00.686Z,16.89
2022-08-28T06:31:33.055Z,16.96
2022-08-28T06:34:03.667Z,17.02
2022-08-28T06:36:33.774Z,17.04
2022-08-28T06:39:02.664Z,17.10
2022-08-28T06:41:32.331Z,17.12
2022-08-28T06:44:00.128Z,17.22
2022-08-28T06:46:28.549Z,17.27
2022-08-28T06:48:55.653Z,17.36
2022-08-28T06:51:25.192Z,17.42
2022-08-28T06:53:52.622Z,17.47
2022-08-28T06:56:26.226Z,17.52
2022-08-28T06:58:56.072Z,17.62
2022-08-28T07:01:25.307Z,17.66
2022-08-28T07:03:54.601Z,17.71
2022-08-28T07:06:25.146Z,17.73
2022-08-28T07:08:52.633Z,17.78
2022-08-28T07:11:26.300Z,17.83
2022-08-28T07:13:55.024Z,17.89
2022-08-28T07:16:24.542Z,17.96
2022-08-28T07:18:51.846Z,17.96
2022-08-28T07:21:19.512Z,17.96
2022-08-28T07:23:50.061Z,18.01
2022-08-28T07:26:19.574Z,18.07
2022-08-28T07:28:46.713Z,18.08
2022-08-28T07:31:16.369Z,18.16
2022-08-28T07:33:43.577Z,18.18
2022-08-28T07:36:16.086Z,18.20
2022-08-28T07:38:59.980Z,18.22
2022-08-28T07:41:30.122Z,18.28
2022-08-28T07:43:58.242Z,18.33
2022-08-28T07:46:25.200Z,18.38
2022-08-28T07:48:52.244Z,18.43
2022-08-28T07:51:19.501Z,18.47
2022-08-28T07:53:47.103Z,18.49
2022-08-28T07:56:16.800Z,18.55
2022-08-28T07:58:44.976Z,18.61
2022-08-28T08:01:12.131Z,18.64
2022-08-28T08:03:39.325Z,18.66
2022-08-28T08:06:07.895Z,18.69
2022-08-28T08:08:35.691Z,18.75
2022-08-28T08:11:06.834Z,18.84
2022-08-28T08:13:40.954Z,18.83
2022-08-28T08:16:11.722Z,18.88
2022-08-28T08:18:39.841Z,18.95
2022-08-28T08:21:09.200Z,18.98
2022-08-28T08:23:37.160Z,19.05
2022-08-28T08:26:06.704Z,19.10
2022-08-28T08:28:36.362Z,19.17
2022-08-28T08:31:09.742Z,19.25
2022-08-28T08:33:38.993Z,19.35
2022-08-28T08:36:07.564Z,19.32
2022-08-28T08:38:35.665Z,19.36
2022-08-28T08:41:20.565Z,19.42
2022-08-28T08:43:50.882Z,19.46
2022-08-28T08:46:26.620Z,19.51
2022-08-28T08:48:56.151Z,19.58
2022-08-28T08:51:36.139Z,19.63
2022-08-28T08:54:07.880Z,19.69
2022-08-28T08:56:35.651Z,19.71
2022-08-28T08:59:07.381Z,19.65
2022-08-28T09:01:42.274Z,19.71
2022-08-28T09:04:21.487Z,19.77
2022-08-28T09:06:52.281Z,19.83
2022-08-28T09:09:27.218Z,19.86
2022-08-28T09:11:57.217Z,19.86
2022-08-28T09:14:36.622Z,19.93
2022-08-28T09:17:07.126Z,19.95
2022-08-28T09:19:35.190Z,20.00
2022-08-28T09:22:03.537Z,20.05
2022-08-28T09:24:34.004Z,20.09
2022-08-28T09:27:03.525Z,20.16
2022-08-28T09:29:34.624Z,20.22
2022-08-28T09:32:22.068Z,20.29
2022-08-28T09:35:07.306Z,20.35
2022-08-28T09:37:36.142Z,20.39
2022-08-28T09:40:25.433Z,20.46
2022-08-28T09:43:05.443Z,20.40
2022-08-28T09:45:32.716Z,20.43
2022-08-28T09:48:02.496Z,20.52
2022-08-28T09:50:35.480Z,20.57
2022-08-28T09:53:21.225Z,20.65
2022-08-28T09:55:59.820Z,20.71
2022-08-28T09:58:34.141Z,20.77
2022-08-28T10:01:10.692Z,20.86
2022-08-28T10:03:48.636Z,20.92
2022-08-28T10:06:22.539Z,20.94
2022-08-28T10:09:04.959Z,21.00
2022-08-28T10:11:44.419Z,21.07
2022-08-28T10:14:35.716Z,21.14
2022-08-28T10:17:15.050Z,21.17
2022-08-28T10:20:00.528Z,21.22
2022-08-28T10:22:40.214Z,21.29
2022-08-28T10:25:21.449Z,21.28
2022-08-28T10:28:04.322Z,21.31
2022-08-28T10:30:39.190Z,21.34
2022-08-28T10:33:24.742Z,21.41
2022-08-28T10:36:03.992Z,21.43
2022-08-28T10:38:39.218Z,21.48
2022-08-28T10:41:11.202Z,21.59
2022-08-28T10:43:46.080Z,21.64
2022-08-28T10:46:24.127Z,21.73
2022-08-28T10:49:00.735Z,21.75
2022-08-28T10:51:36.313Z,21.80
2022-08-28T10:54:13.005Z,21.81
2022-08-28T10:56:46.557Z,21.81
2022-08-28T10:59:24.306Z,21.91
2022-08-28T11:01:52.931Z,21.95
2022-08-28T11:04:25.364Z,21.98
2022-08-28T11:06:58.803Z,22.08
2022-08-28T11:09:33.269Z,22.15
2022-08-28T11:12:03.695Z,22.24
2022-08-28T11:14:35.472Z,22.35
2022-08-28T11:17:09.295Z,22.42
2022-08-28T11:19:57.624Z,22.47
2022-08-28T11:22:29.249Z,22.51
2022-08-28T11:25:09.794Z,22.52
2022-08-28T11:27:39.664Z,22.57
2022-08-28T11:30:33.212Z,22.68
2022-08-28T11:33:40.840Z,22.74
2022-08-28T11:36:11.802Z,22.81
2022-08-28T11:39:16.087Z,22.79
2022-08-28T11:42:28.975Z,22.81
2022-08-28T11:44:56.796Z,22.85
2022-08-28T11:47:42.583Z,22.91
2022-08-28T11:50:18.723Z,23.02
2022-08-28T11:53:17.297Z,23.09
2022-08-28T11:56:07.460Z,23.18
2022-08-28T11:58:44.280Z,23.22
2022-08-28T12:01:13.834Z,23.21
2022-08-28T12:03:44.807Z,23.17
2022-08-28T12:06:13.281Z,23.20
2022-08-28T12:09:04.329Z,23.30
2022-08-28T12:11:55.673Z,23.45
2022-08-28T12:15:02.821Z,23.46
2022-08-28T12:17:52.205Z,23.53
2022-08-28T12:20:41.119Z,23.60
2022-08-28T12:23:40.069Z,23.60
2022-08-28T12:26:11.854Z,23.62
2022-08-28T12:28:57.119Z,23.65
2022-08-28T12:31:55.095Z,23.56
2022-08-28T12:34:33.456Z,23.49
2022-08-28T12:37:03.200Z,23.51
2022-08-28T12:39:33.109Z,23.60
2022-08-28T12:42:02.779Z,23.71
2022-08-28T12:44:33.182Z,23.80
2022-08-28T12:47:02.591Z,23.77
2022-08-28T12:49:33.608Z,23.84
2022-08-28T12:52:16.935Z,23.98
2022-08-28T12:54:45.640Z,24.09
2022-08-28T12:57:16.329Z,24.22
2022-08-28T12:59:47.389Z,24.28
2022-08-28T13:02:25.172Z,24.34
2022-08-28T13:04:56.322Z,24.34
2022-08-28T13:07:30.404Z,24.41
2022-08-28T13:10:01.225Z,24.42
2022-08-28T13:12:54.531Z,24.47
2022-08-28T13:15:54.071Z,24.46
2022-08-28T13:18:43.303Z,24.58
2022-08-28T13:21:33.397Z,24.58
2022-08-28T13:24:16.932Z,24.62
2022-08-28T13:26:44.664Z,24.70
2022-08-28T13:29:18.640Z,24.77
2022-08-28T13:31:57.262Z,24.83
2022-08-28T13:34:26.747Z,24.91
2022-08-28T13:36:56.504Z,24.94
2022-08-28T13:39:24.329Z,25.04
2022-08-28T13:41:55.052Z,25.08
2022-08-28T13:44:30.510Z,25.20
2022-08-28T13:47:00.400Z,25.12
2022-08-28T13:49:27.845Z,25.17
2022-08-28T13:51:57.292Z,25.13
2022-08-28T13:54:25.999Z,25.17
2022-08-28T13:56:56.132Z,25.29
2022-08-28T13:59:23.917Z,25.36
2022-08-28T14:01:55.712Z,25.38
2022-08-28T14:04:25.426Z,25.35
2022-08-28T14:06:52.953Z,25.21
2022-08-28T14:09:20.764Z,25.19
2022-08-28T14:11:49.959Z,25.24
2022-08-28T14:14:19.077Z,25.29
2022-08-28T14:16:46.875Z,25.35
2022-08-28T14:19:14.730Z,25.36
2022-08-28T14:21:46.408Z,25.32
2022-08-28T14:24:14.558Z,25.25
2022-08-28T14:26:42.101Z,25.21
2022-08-28T14:29:11.173Z,25.17
2022-08-28T14:31:40.408Z,25.14
2022-08-28T14:34:09.739Z,25.06
2022-08-28T14:36:37.711Z,25.05
2022-08-28T14:39:10.240Z,24.99
2022-08-28T14:41:38.441Z,24.82
2022-08-28T14:44:06.216Z,24.70
2022-08-28T14:46:36.239Z,24.55
2022-08-28T14:49:06.282Z,24.38
2022-08-28T14:51:36.156Z,24.22
2022-08-28T14:54:05.574Z,24.05
2022-08-28T14:56:35.990Z,23.82
2022-08-28T14:59:06.723Z,23.42
2022-08-28T15:01:40.933Z,23.16
2022-08-28T15:04:12.877Z,22.64
2022-08-28T15:06:42.728Z,22.27
2022-08-28T15:09:10.578Z,22.02
2022-08-28T15:11:40.638Z,21.84
2022-08-28T15:14:07.983Z,21.73
2022-08-28T15:16:38.302Z,21.48
2022-08-28T15:19:08.709Z,21.23
2022-08-28T15:21:38.128Z,21.04
2022-08-28T15:24:08.196Z,20.98
2022-08-28T15:26:36.358Z,20.88
2022-08-28T15:29:05.460Z,20.73
2022-08-28T15:31:35.361Z,20.53
2022-08-28T15:34:04.570Z,20.29
2022-08-28T15:36:34.447Z,20.22
2022-08-28T15:39:02.858Z,20.09
2022-08-28T15:41:31.102Z,20.08
2022-08-28T15:44:01.126Z,20.14
2022-08-28T15:46:32.838Z,20.14
2022-08-28T15:49:01.310Z,20.10
2022-08-28T15:51:28.826Z,19.98
2022-08-28T15:53:56.639Z,19.91
2022-08-28T15:56:24.153Z,19.89
2022-08-28T15:58:51.609Z,19.88
2022-08-28T16:01:19.625Z,19.89
2022-08-28T16:03:49.613Z,19.88
2022-08-28T16:06:18.938Z,19.87
2022-08-28T16:08:46.918Z,19.83
2022-08-28T16:11:16.458Z,19.78
2022-08-28T16:13:43.564Z,19.73
2022-08-28T16:16:10.755Z,19.70
2022-08-28T16:18:38.603Z,19.71
2022-08-28T16:21:08.862Z,19.70
2022-08-28T16:23:36.956Z,19.68
2022-08-28T16:26:06.856Z,19.68
2022-08-28T16:28:34.404Z,19.71
2022-08-28T16:31:04.866Z,19.79
2022-08-28T16:33:35.084Z,19.78
2022-08-28T16:36:10.071Z,19.81
2022-08-28T16:38:39.415Z,19.85
2022-08-28T16:41:11.601Z,19.85
2022-08-28T16:43:39.408Z,19.87
2022-08-28T16:46:11.034Z,19.88
2022-08-28T16:48:38.863Z,19.89
2022-08-28T16:51:08.643Z,19.85
2022-08-28T16:53:36.239Z,19.84
2022-08-28T16:56:04.950Z,19.81
2022-08-28T16:58:32.152Z,19.79
2022-08-28T17:00:59.497Z,19.77
2022-08-28T17:03:26.979Z,19.75
2022-08-28T17:05:56.106Z,19.78
2022-08-28T17:08:24.917Z,19.78
2022-08-28T17:10:52.479Z,19.79
2022-08-28T17:13:20.093Z,19.80
2022-08-28T17:15:47.518Z,19.78
2022-08-28T17:18:15.079Z,19.81
2022-08-28T17:20:42.890Z,19.76
2022-08-28T17:23:10.077Z,19.80
2022-08-28T17:25:38.994Z,19.78
2022-08-28T17:28:07.132Z,19.78
2022-08-28T17:30:34.447Z,19.72
2022-08-28T17:33:01.708Z,19.69
2022-08-28T17:35:28.970Z,19.64
2022-08-28T17:37:56.685Z,19.63
2022-08-28T17:40:25.319Z,19.61
2022-08-28T17:42:53.931Z,19.58
2022-08-28T17:45:21.301Z,19.57
2022-08-28T17:47:48.758Z,19.54
2022-08-28T17:50:16.438Z,19.51
2022-08-28T17:52:44.146Z,19.50
2022-08-28T17:55:12.251Z,19.49
2022-08-28T17:57:40.756Z,19.47
2022-08-28T18:00:13.307Z,19.40
2022-08-28T18:02:41.490Z,19.30
2022-08-28T18:05:10.715Z,19.23
2022-08-28T18:07:39.306Z,19.15
2022-08-28T18:10:09.251Z,19.11
2022-08-28T18:12:37.632Z,19.14
2022-08-28T18:15:06.721Z,19.19
2022-08-28T18:17:37.230Z,19.18
2022-08-28T18:20:09.278Z,19.16
2022-08-28T18:22:37.681Z,19.08
2022-08-28T18:25:07.017Z,19.07
2022-08-28T18:27:35.072Z,19.07
2022-08-28T18:30:03.294Z,19.06
2022-08-28T18:32:31.659Z,19.09
2022-08-28T18:35:00.615Z,19.09
2022-08-28T18:37:28.253Z,19.08
2022-08-28T18:39:56.327Z,19.06
2022-08-28T18:42:24.594Z,19.02
2022-08-28T18:44:52.462Z,18.93
2022-08-28T18:47:20.143Z,18.90
2022-08-28T18:49:49.421Z,18.83
2022-08-28T18:52:20.003Z,18.82
2022-08-28T18:54:49.931Z,18.81
2022-08-28T18:57:18.427Z,18.82
2022-08-28T18:59:48.138Z,18.80
2022-08-28T19:02:16.831Z,18.75
2022-08-28T19:04:44.827Z,18.73
2022-08-28T19:07:14.253Z,18.69
2022-08-28T19:09:44.301Z,18.64
2022-08-28T19:12:12.841Z,18.60
2022-08-28T19:14:40.524Z,18.58
2022-08-28T19:17:07.993Z,18.58
2022-08-28T19:19:36.863Z,18.60
2022-08-28T19:22:05.281Z,18.63
2022-08-28T19:24:33.928Z,18.68
2022-08-28T19:27:04.245Z,18.67
2022-08-28T19:29:32.631Z,18.69
2022-08-28T19:32:01.140Z,18.71
2022-08-28T19:34:29.115Z,18.72
2022-08-28T19:36:56.671Z,18.70
2022-08-28T19:39:24.782Z,18.73
2022-08-28T19:41:52.620Z,18.76
2022-08-28T19:44:22.108Z,18.79
2022-08-28T19:46:50.529Z,18.79
2022-08-28T19:49:18.483Z,18.76
2022-08-28T19:51:46.885Z,18.74
2022-08-28T19:54:14.589Z,18.66
2022-08-28T19:56:42.653Z,18.64
2022-08-28T19:59:11.392Z,18.62
2022-08-28T20:01:42.842Z,18.56
2022-08-28T20:04:11.476Z,18.51
2022-08-28T20:06:39.066Z,18.51
2022-08-28T20:09:12.031Z,18.48
2022-08-28T20:11:41.442Z,18.48
2022-08-28T20:14:09.281Z,18.45
2022-08-28T20:16:38.633Z,18.43
2022-08-28T20:19:10.376Z,18.43
2022-08-28T20:21:40.331Z,18.43
2022-08-28T20:24:11.199Z,18.43
2022-08-28T20:26:38.642Z,18.46
2022-08-28T20:29:07.809Z,18.46
2022-08-28T20:31:35.533Z,18.45
2022-08-28T20:34:03.365Z,18.43
2022-08-28T20:36:34.028Z,18.40
2022-08-28T20:39:01.743Z,18.38
2022-08-28T20:41:29.123Z,18.40
2022-08-28T20:43:56.633Z,18.45
2022-08-28T20:46:24.117Z,18.47
2022-08-28T20:48:51.642Z,18.48
2022-08-28T20:51:19.199Z,18.48
2022-08-28T20:53:48.005Z,18.51
2022-08-28T20:56:16.168Z,18.49
2022-08-28T20:58:44.017Z,18.45
2022-08-28T21:01:13.182Z,18.44
2022-08-28T21:03:40.617Z,18.44
2022-08-28T21:06:08.523Z,18.47
2022-08-28T21:08:36.035Z,18.48
2022-08-28T21:11:05.762Z,18.51
2022-08-28T21:13:33.673Z,18.51
2022-08-28T21:16:04.458Z,18.54
2022-08-28T21:18:31.712Z,18.54
2022-08-28T21:20:58.988Z,18.54
2022-08-28T21:23:26.252Z,18.51
2022-08-28T21:25:53.587Z,18.45
2022-08-28T21:28:22.359Z,18.46
2022-08-28T21:30:49.864Z,18.44
2022-08-28T21:33:17.371Z,18.40
2022-08-28T21:35:45.493Z,18.38
2022-08-28T21:38:13.102Z,18.38
2022-08-28T21:40:40.555Z,18.41
2022-08-28T21:43:08.313Z,18.42
2022-08-28T21:45:37.238Z,18.45
2022-08-28T21:48:04.821Z,18.45
2022-08-28T21:50:32.094Z,18.43
2022-08-28T21:52:59.401Z,18.40
2022-08-28T21:55:26.872Z,18.38
2022-08-28T21:57:54.100Z,18.37
2022-08-28T22:00:23.509Z,18.37
2022-08-28T22:02:52.690Z,18.34
2022-08-28T22:05:20.202Z,18.36
2022-08-28T22:07:47.472Z,18.36
2022-08-28T22:10:15.189Z,18.34
2022-08-28T22:12:42.987Z,18.37
2022-08-28T22:15:11.192Z,18.37
2022-08-28T22:17:38.567Z,18.36
2022-08-28T22:20:10.594Z,18.33
2022-08-28T22:22:38.044Z,18.33
2022-08-28T22:25:06.093Z,18.32
2022-08-28T22:27:33.924Z,18.27
2022-08-28T22:30:01.440Z,18.30
2022-08-28T22:32:28.946Z,18.30
2022-08-28T22:34:56.810Z,18.32
2022-08-28T22:37:25.444Z,18.30
2022-08-28T22:39:52.799Z,18.23
2022-08-28T22:42:20.314Z,18.23
2022-08-28T22:44:47.810Z,18.24
2022-08-28T22:47:15.351Z,18.21
2022-08-28T22:49:46.703Z,18.17
2022-08-28T22:52:13.802Z,18.13
2022-08-28T22:54:43.495Z,18.08
2022-08-28T22:57:11.209Z,18.06
2022-08-28T22:59:38.478Z,18.04
2022-08-28T23:02:05.946Z,18.01
2022-08-28T23:04:33.497Z,18.03
2022-08-28T23:07:00.957Z,18.07
2022-08-28T23:09:28.434Z,18.10
2022-08-28T23:12:00.243Z,18.11
2022-08-28T23:14:27.813Z,18.10
2022-08-28T23:16:55.430Z,18.07
2022-08-28T23:19:23.686Z,18.04
2022-08-28T23:21:51.234Z,18.00
2022-08-28T23:24:19.054Z,18.02
2022-08-28T23:26:47.176Z,18.06
2022-08-28T23:29:15.979Z,18.08
2022-08-28T23:31:43.360Z,18.13
2022-08-28T23:34:10.893Z,18.14
2022-08-28T23:36:39.390Z,18.13
2022-08-28T23:39:10.570Z,18.11
2022-08-28T23:41:38.724Z,18.12
2022-08-28T23:44:08.973Z,18.14
2022-08-28T23:46:41.662Z,18.12
2022-08-28T23:49:10.278Z,18.15
2022-08-28T23:51:37.604Z,18.15
2022-08-28T23:54:04.970Z,18.14
2022-08-28T23:56:33.452Z,18.08
2022-08-28T23:59:01.160Z,18.05
